sensor_id;sensor_type;location;lat;lon;timestamp;P1;durP1;ratioP1;P2;durP2;ratioP2
54679;SDS011;40578;53.178;5.846;2022-07-19T00:01:36;12.37;;;7.57;;
54679;SDS011;40578;53.178;5.846;2022-07-19T00:04:02;10.85;;;8.25;;
54679;SDS011;40578;53.178;5.846;2022-07-19T00:06:28;12.02;;;8.55;;
54679;SDS011;40578;53.178;5.846;2022-07-19T00:08:54;9.83;;;7.70;;
54679;SDS011;40578;53.178;5.846;2022-07-19T00:11:19;9.90;;;8.53;;
54679;SDS011;40578;53.178;5.846;2022-07-19T00:13:45;13.57;;;7.90;;
54679;SDS011;40578;53.178;5.846;2022-07-19T00:16:11;11.20;;;7.37;;
54679;SDS011;40578;53.178;5.846;2022-07-19T00:18:37;10.27;;;8.33;;
54679;SDS011;40578;53.178;5.846;2022-07-19T00:21:03;12.45;;;8.43;;
54679;SDS011;40578;53.178;5.846;2022-07-19T00:23:28;9.45;;;7.90;;
54679;SDS011;40578;53.178;5.846;2022-07-19T00:25:54;12.43;;;8.23;;
54679;SDS011;40578;53.178;5.846;2022-07-19T00:28:20;10.47;;;8.70;;
54679;SDS011;40578;53.178;5.846;2022-07-19T00:30:45;10.03;;;8.30;;
54679;SDS011;40578;53.178;5.846;2022-07-19T00:33:11;11.13;;;8.23;;
54679;SDS011;40578;53.178;5.846;2022-07-19T00:35:37;10.67;;;8.00;;
54679;SDS011;40578;53.178;5.846;2022-07-19T00:38:05;10.52;;;8.18;;
54679;SDS011;40578;53.178;5.846;2022-07-19T00:40:33;12.25;;;7.88;;
54679;SDS011;40578;53.178;5.846;2022-07-19T00:42:59;12.65;;;8.55;;
54679;SDS011;40578;53.178;5.846;2022-07-19T00:45:25;13.90;;;8.63;;
54679;SDS011;40578;53.178;5.846;2022-07-19T00:47:51;9.37;;;7.87;;
54679;SDS011;40578;53.178;5.846;2022-07-19T00:50:17;11.97;;;8.80;;
54679;SDS011;40578;53.178;5.846;2022-07-19T00:52:44;11.18;;;8.57;;
54679;SDS011;40578;53.178;5.846;2022-07-19T00:55:11;14.23;;;8.98;;
54679;SDS011;40578;53.178;5.846;2022-07-19T00:57:37;8.60;;;7.70;;
54679;SDS011;40578;53.178;5.846;2022-07-19T01:00:04;10.30;;;8.10;;
54679;SDS011;40578;53.178;5.846;2022-07-19T01:02:32;13.23;;;8.90;;
54679;SDS011;40578;53.178;5.846;2022-07-19T01:05:01;9.70;;;8.25;;
54679;SDS011;40578;53.178;5.846;2022-07-19T01:07:26;9.63;;;8.57;;
54679;SDS011;40578;53.178;5.846;2022-07-19T01:09:52;14.38;;;8.60;;
54679;SDS011;40578;53.178;5.846;2022-07-19T01:12:21;15.07;;;8.57;;
54679;SDS011;40578;53.178;5.846;2022-07-19T01:14:48;11.77;;;8.65;;
54679;SDS011;40578;53.178;5.846;2022-07-19T01:17:14;12.13;;;8.85;;
54679;SDS011;40578;53.178;5.846;2022-07-19T01:19:41;10.93;;;8.00;;
54679;SDS011;40578;53.178;5.846;2022-07-19T01:22:08;13.23;;;8.23;;
54679;SDS011;40578;53.178;5.846;2022-07-19T01:24:34;11.80;;;8.40;;
54679;SDS011;40578;53.178;5.846;2022-07-19T01:26:59;11.37;;;8.20;;
54679;SDS011;40578;53.178;5.846;2022-07-19T01:29:25;10.87;;;8.23;;
54679;SDS011;40578;53.178;5.846;2022-07-19T01:31:51;9.10;;;7.70;;
54679;SDS011;40578;53.178;5.846;2022-07-19T01:34:16;12.07;;;8.10;;
54679;SDS011;40578;53.178;5.846;2022-07-19T01:36:42;10.33;;;8.37;;
54679;SDS011;40578;53.178;5.846;2022-07-19T01:39:08;14.63;;;8.97;;
54679;SDS011;40578;53.178;5.846;2022-07-19T01:41:33;10.67;;;8.13;;
54679;SDS011;40578;53.178;5.846;2022-07-19T01:43:59;11.23;;;7.97;;
54679;SDS011;40578;53.178;5.846;2022-07-19T01:46:25;10.43;;;7.63;;
54679;SDS011;40578;53.178;5.846;2022-07-19T01:48:51;12.43;;;8.23;;
54679;SDS011;40578;53.178;5.846;2022-07-19T01:51:16;11.87;;;8.60;;
54679;SDS011;40578;53.178;5.846;2022-07-19T01:53:42;14.30;;;8.90;;
54679;SDS011;40578;53.178;5.846;2022-07-19T01:56:07;12.87;;;8.90;;
54679;SDS011;40578;53.178;5.846;2022-07-19T01:58:33;12.07;;;9.00;;
54679;SDS011;40578;53.178;5.846;2022-07-19T02:00:59;10.30;;;8.77;;
54679;SDS011;40578;53.178;5.846;2022-07-19T02:03:24;10.50;;;8.80;;
54679;SDS011;40578;53.178;5.846;2022-07-19T02:05:50;12.60;;;8.70;;
54679;SDS011;40578;53.178;5.846;2022-07-19T02:08:16;13.73;;;8.97;;
54679;SDS011;40578;53.178;5.846;2022-07-19T02:10:41;11.17;;;9.13;;
54679;SDS011;40578;53.178;5.846;2022-07-19T02:13:07;13.40;;;9.53;;
54679;SDS011;40578;53.178;5.846;2022-07-19T02:15:33;12.53;;;9.17;;
54679;SDS011;40578;53.178;5.846;2022-07-19T02:17:59;12.40;;;10.10;;
54679;SDS011;40578;53.178;5.846;2022-07-19T02:20:25;11.57;;;9.60;;
54679;SDS011;40578;53.178;5.846;2022-07-19T02:22:50;16.17;;;8.93;;
54679;SDS011;40578;53.178;5.846;2022-07-19T02:25:16;15.10;;;9.20;;
54679;SDS011;40578;53.178;5.846;2022-07-19T02:27:42;11.17;;;8.93;;
54679;SDS011;40578;53.178;5.846;2022-07-19T02:30:08;30.20;;;10.77;;
54679;SDS011;40578;53.178;5.846;2022-07-19T02:32:36;14.77;;;9.90;;
54679;SDS011;40578;53.178;5.846;2022-07-19T02:35:02;11.65;;;9.23;;
54679;SDS011;40578;53.178;5.846;2022-07-19T02:37:29;13.63;;;9.85;;
54679;SDS011;40578;53.178;5.846;2022-07-19T02:39:55;15.13;;;10.00;;
54679;SDS011;40578;53.178;5.846;2022-07-19T02:42:21;13.70;;;10.03;;
54679;SDS011;40578;53.178;5.846;2022-07-19T02:44:46;13.47;;;9.13;;
54679;SDS011;40578;53.178;5.846;2022-07-19T02:47:12;12.37;;;10.17;;
54679;SDS011;40578;53.178;5.846;2022-07-19T02:49:38;14.33;;;8.97;;
54679;SDS011;40578;53.178;5.846;2022-07-19T02:52:04;11.17;;;9.93;;
54679;SDS011;40578;53.178;5.846;2022-07-19T02:54:29;14.00;;;10.30;;
54679;SDS011;40578;53.178;5.846;2022-07-19T02:56:56;15.00;;;9.40;;
54679;SDS011;40578;53.178;5.846;2022-07-19T02:59:21;15.88;;;9.38;;
54679;SDS011;40578;53.178;5.846;2022-07-19T03:01:47;14.40;;;9.50;;
54679;SDS011;40578;53.178;5.846;2022-07-19T03:04:13;14.83;;;9.77;;
54679;SDS011;40578;53.178;5.846;2022-07-19T03:06:38;18.03;;;10.17;;
54679;SDS011;40578;53.178;5.846;2022-07-19T03:09:04;17.50;;;9.67;;
54679;SDS011;40578;53.178;5.846;2022-07-19T03:11:30;14.37;;;9.67;;
54679;SDS011;40578;53.178;5.846;2022-07-19T03:13:55;10.97;;;9.70;;
54679;SDS011;40578;53.178;5.846;2022-07-19T03:16:21;16.63;;;9.87;;
54679;SDS011;40578;53.178;5.846;2022-07-19T03:18:47;12.63;;;10.23;;
54679;SDS011;40578;53.178;5.846;2022-07-19T03:21:12;13.90;;;9.60;;
54679;SDS011;40578;53.178;5.846;2022-07-19T03:23:38;13.53;;;10.17;;
54679;SDS011;40578;53.178;5.846;2022-07-19T03:26:04;12.37;;;10.30;;
54679;SDS011;40578;53.178;5.846;2022-07-19T03:28:30;14.32;;;10.00;;
54679;SDS011;40578;53.178;5.846;2022-07-19T03:30:56;15.70;;;10.33;;
54679;SDS011;40578;53.178;5.846;2022-07-19T03:33:21;13.60;;;9.57;;
54679;SDS011;40578;53.178;5.846;2022-07-19T03:35:47;15.47;;;9.80;;
54679;SDS011;40578;53.178;5.846;2022-07-19T03:38:13;11.97;;;10.70;;
54679;SDS011;40578;53.178;5.846;2022-07-19T03:40:40;16.65;;;10.57;;
54679;SDS011;40578;53.178;5.846;2022-07-19T03:43:06;13.60;;;9.35;;
54679;SDS011;40578;53.178;5.846;2022-07-19T03:45:32;15.17;;;9.53;;
54679;SDS011;40578;53.178;5.846;2022-07-19T03:47:58;17.80;;;10.38;;
54679;SDS011;40578;53.178;5.846;2022-07-19T03:50:25;12.90;;;10.10;;
54679;SDS011;40578;53.178;5.846;2022-07-19T03:52:51;14.93;;;9.85;;
54679;SDS011;40578;53.178;5.846;2022-07-19T03:55:17;11.97;;;9.67;;
54679;SDS011;40578;53.178;5.846;2022-07-19T03:57:42;15.30;;;9.73;;
54679;SDS011;40578;53.178;5.846;2022-07-19T04:00:08;10.87;;;9.50;;
54679;SDS011;40578;53.178;5.846;2022-07-19T04:02:34;16.17;;;9.80;;
54679;SDS011;40578;53.178;5.846;2022-07-19T04:05:01;13.87;;;9.93;;
54679;SDS011;40578;53.178;5.846;2022-07-19T04:07:26;13.35;;;9.15;;
54679;SDS011;40578;53.178;5.846;2022-07-19T04:09:52;23.13;;;10.83;;
54679;SDS011;40578;53.178;5.846;2022-07-19T04:12:17;13.40;;;10.30;;
54679;SDS011;40578;53.178;5.846;2022-07-19T04:14:43;15.20;;;10.53;;
54679;SDS011;40578;53.178;5.846;2022-07-19T04:17:09;16.60;;;10.53;;
54679;SDS011;40578;53.178;5.846;2022-07-19T04:19:34;12.40;;;9.80;;
54679;SDS011;40578;53.178;5.846;2022-07-19T04:22:00;11.03;;;9.33;;
54679;SDS011;40578;53.178;5.846;2022-07-19T04:24:26;12.40;;;9.20;;
54679;SDS011;40578;53.178;5.846;2022-07-19T04:26:51;15.43;;;9.43;;
54679;SDS011;40578;53.178;5.846;2022-07-19T04:29:17;10.33;;;9.23;;
54679;SDS011;40578;53.178;5.846;2022-07-19T04:31:42;14.20;;;10.37;;
54679;SDS011;40578;53.178;5.846;2022-07-19T04:34:08;11.47;;;9.83;;
54679;SDS011;40578;53.178;5.846;2022-07-19T04:36:34;11.93;;;9.57;;
54679;SDS011;40578;53.178;5.846;2022-07-19T04:39:00;13.70;;;9.90;;
54679;SDS011;40578;53.178;5.846;2022-07-19T04:41:25;12.00;;;9.07;;
54679;SDS011;40578;53.178;5.846;2022-07-19T04:43:51;14.37;;;10.00;;
54679;SDS011;40578;53.178;5.846;2022-07-19T04:46:16;10.97;;;9.40;;
54679;SDS011;40578;53.178;5.846;2022-07-19T04:48:42;13.13;;;9.43;;
54679;SDS011;40578;53.178;5.846;2022-07-19T04:51:08;13.67;;;9.70;;
54679;SDS011;40578;53.178;5.846;2022-07-19T04:53:33;11.50;;;9.57;;
54679;SDS011;40578;53.178;5.846;2022-07-19T04:55:59;14.67;;;10.07;;
54679;SDS011;40578;53.178;5.846;2022-07-19T04:58:25;14.23;;;9.43;;
54679;SDS011;40578;53.178;5.846;2022-07-19T05:00:51;13.35;;;9.75;;
54679;SDS011;40578;53.178;5.846;2022-07-19T05:03:17;12.77;;;8.83;;
54679;SDS011;40578;53.178;5.846;2022-07-19T05:05:42;11.43;;;8.87;;
54679;SDS011;40578;53.178;5.846;2022-07-19T05:08:08;13.40;;;9.70;;
54679;SDS011;40578;53.178;5.846;2022-07-19T05:10:34;11.80;;;9.23;;
54679;SDS011;40578;53.178;5.846;2022-07-19T05:13:00;10.55;;;8.18;;
54679;SDS011;40578;53.178;5.846;2022-07-19T05:15:25;12.10;;;8.17;;
54679;SDS011;40578;53.178;5.846;2022-07-19T05:17:51;13.02;;;8.57;;
54679;SDS011;40578;53.178;5.846;2022-07-19T05:20:17;15.10;;;8.10;;
54679;SDS011;40578;53.178;5.846;2022-07-19T05:22:43;12.07;;;8.03;;
54679;SDS011;40578;53.178;5.846;2022-07-19T05:25:09;21.75;;;7.55;;
54679;SDS011;40578;53.178;5.846;2022-07-19T05:27:36;12.15;;;7.65;;
54679;SDS011;40578;53.178;5.846;2022-07-19T05:30:02;10.07;;;7.32;;
54679;SDS011;40578;53.178;5.846;2022-07-19T05:32:29;12.25;;;7.80;;
54679;SDS011;40578;53.178;5.846;2022-07-19T05:34:54;10.77;;;7.47;;
54679;SDS011;40578;53.178;5.846;2022-07-19T05:37:20;15.33;;;8.10;;
54679;SDS011;40578;53.178;5.846;2022-07-19T05:39:46;11.20;;;8.10;;
54679;SDS011;40578;53.178;5.846;2022-07-19T05:42:11;10.70;;;8.10;;
54679;SDS011;40578;53.178;5.846;2022-07-19T05:44:37;10.77;;;8.33;;
54679;SDS011;40578;53.178;5.846;2022-07-19T05:47:03;10.33;;;7.57;;
54679;SDS011;40578;53.178;5.846;2022-07-19T05:49:28;14.23;;;8.80;;
54679;SDS011;40578;53.178;5.846;2022-07-19T05:51:54;14.13;;;8.83;;
54679;SDS011;40578;53.178;5.846;2022-07-19T05:54:20;11.33;;;8.50;;
54679;SDS011;40578;53.178;5.846;2022-07-19T05:56:45;11.00;;;7.67;;
54679;SDS011;40578;53.178;5.846;2022-07-19T05:59:11;11.07;;;7.50;;
54679;SDS011;40578;53.178;5.846;2022-07-19T06:01:36;11.20;;;7.80;;
54679;SDS011;40578;53.178;5.846;2022-07-19T06:04:02;9.40;;;7.30;;
54679;SDS011;40578;53.178;5.846;2022-07-19T06:06:29;9.80;;;6.70;;
54679;SDS011;40578;53.178;5.846;2022-07-19T06:08:56;10.20;;;7.28;;
54679;SDS011;40578;53.178;5.846;2022-07-19T06:11:23;10.43;;;6.90;;
54679;SDS011;40578;53.178;5.846;2022-07-19T06:13:49;11.02;;;7.20;;
54679;SDS011;40578;53.178;5.846;2022-07-19T06:16:16;11.07;;;6.72;;
54679;SDS011;40578;53.178;5.846;2022-07-19T06:18:42;10.50;;;7.03;;
54679;SDS011;40578;53.178;5.846;2022-07-19T06:21:09;10.30;;;7.00;;
54679;SDS011;40578;53.178;5.846;2022-07-19T06:23:37;9.10;;;6.43;;
54679;SDS011;40578;53.178;5.846;2022-07-19T06:26:05;9.32;;;6.68;;
54679;SDS011;40578;53.178;5.846;2022-07-19T06:28:31;10.82;;;6.65;;
54679;SDS011;40578;53.178;5.846;2022-07-19T06:30:57;9.50;;;7.20;;
54679;SDS011;40578;53.178;5.846;2022-07-19T06:33:23;7.70;;;6.47;;
54679;SDS011;40578;53.178;5.846;2022-07-19T06:35:49;8.90;;;6.70;;
54679;SDS011;40578;53.178;5.846;2022-07-19T06:38:15;8.40;;;6.17;;
54679;SDS011;40578;53.178;5.846;2022-07-19T06:40:41;10.75;;;7.28;;
54679;SDS011;40578;53.178;5.846;2022-07-19T06:43:07;11.10;;;6.43;;
54679;SDS011;40578;53.178;5.846;2022-07-19T06:45:33;9.90;;;6.78;;
54679;SDS011;40578;53.178;5.846;2022-07-19T06:47:58;10.10;;;6.88;;
54679;SDS011;40578;53.178;5.846;2022-07-19T06:50:24;8.40;;;6.40;;
54679;SDS011;40578;53.178;5.846;2022-07-19T06:52:50;10.33;;;6.73;;
54679;SDS011;40578;53.178;5.846;2022-07-19T06:55:15;8.07;;;6.10;;
54679;SDS011;40578;53.178;5.846;2022-07-19T06:57:41;8.73;;;6.60;;
54679;SDS011;40578;53.178;5.846;2022-07-19T07:02:38;8.82;;;6.50;;
54679;SDS011;40578;53.178;5.846;2022-07-19T07:05:06;7.90;;;5.90;;
54679;SDS011;40578;53.178;5.846;2022-07-19T07:07:33;8.10;;;5.90;;
54679;SDS011;40578;53.178;5.846;2022-07-19T07:10:00;8.38;;;5.38;;
54679;SDS011;40578;53.178;5.846;2022-07-19T07:12:29;10.18;;;6.25;;
54679;SDS011;40578;53.178;5.846;2022-07-19T07:14:55;7.32;;;5.10;;
54679;SDS011;40578;53.178;5.846;2022-07-19T07:17:20;10.48;;;6.25;;
54679;SDS011;40578;53.178;5.846;2022-07-19T07:19:47;8.88;;;5.80;;
54679;SDS011;40578;53.178;5.846;2022-07-19T07:22:12;9.43;;;6.30;;
54679;SDS011;40578;53.178;5.846;2022-07-19T07:24:39;9.30;;;5.67;;
54679;SDS011;40578;53.178;5.846;2022-07-19T07:29:30;7.85;;;5.03;;
54679;SDS011;40578;53.178;5.846;2022-07-19T07:31:56;7.93;;;5.40;;
54679;SDS011;40578;53.178;5.846;2022-07-19T07:34:22;6.20;;;5.10;;
54679;SDS011;40578;53.178;5.846;2022-07-19T07:36:47;8.77;;;5.70;;
54679;SDS011;40578;53.178;5.846;2022-07-19T07:39:13;8.43;;;5.20;;
54679;SDS011;40578;53.178;5.846;2022-07-19T07:41:39;11.60;;;5.47;;
54679;SDS011;40578;53.178;5.846;2022-07-19T07:44:05;7.50;;;5.30;;
54679;SDS011;40578;53.178;5.846;2022-07-19T07:46:31;8.40;;;5.85;;
54679;SDS011;40578;53.178;5.846;2022-07-19T07:48:57;8.13;;;5.67;;
54679;SDS011;40578;53.178;5.846;2022-07-19T07:51:23;8.63;;;6.07;;
54679;SDS011;40578;53.178;5.846;2022-07-19T07:53:48;18.77;;;6.10;;
54679;SDS011;40578;53.178;5.846;2022-07-19T07:56:14;8.40;;;5.87;;
54679;SDS011;40578;53.178;5.846;2022-07-19T07:58:40;7.47;;;5.50;;
54679;SDS011;40578;53.178;5.846;2022-07-19T08:01:05;9.87;;;5.70;;
54679;SDS011;40578;53.178;5.846;2022-07-19T08:03:32;7.03;;;5.53;;
54679;SDS011;40578;53.178;5.846;2022-07-19T08:08:24;9.45;;;5.05;;
54679;SDS011;40578;53.178;5.846;2022-07-19T08:10:55;8.00;;;5.47;;
54679;SDS011;40578;53.178;5.846;2022-07-19T08:13:21;7.00;;;5.00;;
54679;SDS011;40578;53.178;5.846;2022-07-19T08:15:48;7.55;;;4.75;;
54679;SDS011;40578;53.178;5.846;2022-07-19T08:18:14;8.52;;;5.13;;
54679;SDS011;40578;53.178;5.846;2022-07-19T08:20:40;7.05;;;5.35;;
54679;SDS011;40578;53.178;5.846;2022-07-19T08:23:06;7.97;;;5.10;;
54679;SDS011;40578;53.178;5.846;2022-07-19T08:25:32;8.73;;;4.60;;
54679;SDS011;40578;53.178;5.846;2022-07-19T08:27:59;8.75;;;4.55;;
54679;SDS011;40578;53.178;5.846;2022-07-19T08:30:26;7.45;;;4.70;;
54679;SDS011;40578;53.178;5.846;2022-07-19T08:32:52;7.53;;;4.85;;
54679;SDS011;40578;53.178;5.846;2022-07-19T08:35:18;7.45;;;4.85;;
54679;SDS011;40578;53.178;5.846;2022-07-19T08:37:44;8.93;;;4.00;;
54679;SDS011;40578;53.178;5.846;2022-07-19T08:40:10;9.20;;;4.37;;
54679;SDS011;40578;53.178;5.846;2022-07-19T08:42:36;7.28;;;3.88;;
54679;SDS011;40578;53.178;5.846;2022-07-19T08:45:04;6.25;;;4.18;;
54679;SDS011;40578;53.178;5.846;2022-07-19T08:47:31;9.80;;;3.90;;
54679;SDS011;40578;53.178;5.846;2022-07-19T08:50:01;6.03;;;3.70;;
54679;SDS011;40578;53.178;5.846;2022-07-19T08:52:34;6.75;;;3.47;;
54679;SDS011;40578;53.178;5.846;2022-07-19T08:55:01;8.25;;;3.70;;
54679;SDS011;40578;53.178;5.846;2022-07-19T08:57:27;7.30;;;3.80;;
54679;SDS011;40578;53.178;5.846;2022-07-19T09:00:11;5.88;;;3.60;;
54679;SDS011;40578;53.178;5.846;2022-07-19T09:02:38;7.13;;;3.78;;
54679;SDS011;40578;53.178;5.846;2022-07-19T09:05:06;6.80;;;3.40;;
54679;SDS011;40578;53.178;5.846;2022-07-19T09:07:33;6.22;;;3.20;;
54679;SDS011;40578;53.178;5.846;2022-07-19T09:10:20;5.97;;;3.10;;
54679;SDS011;40578;53.178;5.846;2022-07-19T09:15:49;4.93;;;3.30;;
54679;SDS011;40578;53.178;5.846;2022-07-19T09:20:52;7.43;;;3.15;;
54679;SDS011;40578;53.178;5.846;2022-07-19T09:23:22;11.60;;;3.13;;
54679;SDS011;40578;53.178;5.846;2022-07-19T09:25:50;4.90;;;3.33;;
54679;SDS011;40578;53.178;5.846;2022-07-19T09:28:17;5.70;;;2.88;;
54679;SDS011;40578;53.178;5.846;2022-07-19T09:30:45;6.05;;;2.90;;
54679;SDS011;40578;53.178;5.846;2022-07-19T09:33:22;6.20;;;2.72;;
54679;SDS011;40578;53.178;5.846;2022-07-19T09:35:52;6.15;;;2.60;;
54679;SDS011;40578;53.178;5.846;2022-07-19T09:38:31;4.07;;;2.88;;
54679;SDS011;40578;53.178;5.846;2022-07-19T09:43:47;6.13;;;2.75;;
54679;SDS011;40578;53.178;5.846;2022-07-19T09:46:36;5.68;;;2.63;;
54679;SDS011;40578;53.178;5.846;2022-07-19T09:49:10;6.70;;;2.70;;
54679;SDS011;40578;53.178;5.846;2022-07-19T09:51:40;4.70;;;2.65;;
54679;SDS011;40578;53.178;5.846;2022-07-19T09:54:08;4.07;;;2.83;;
54679;SDS011;40578;53.178;5.846;2022-07-19T09:56:36;9.18;;;2.75;;
54679;SDS011;40578;53.178;5.846;2022-07-19T09:59:04;6.05;;;2.60;;
54679;SDS011;40578;53.178;5.846;2022-07-19T10:01:31;6.43;;;3.08;;
54679;SDS011;40578;53.178;5.846;2022-07-19T10:04:01;6.88;;;2.85;;
54679;SDS011;40578;53.178;5.846;2022-07-19T10:06:30;5.85;;;2.92;;
54679;SDS011;40578;53.178;5.846;2022-07-19T10:08:57;5.55;;;2.90;;
54679;SDS011;40578;53.178;5.846;2022-07-19T10:11:23;5.55;;;2.72;;
54679;SDS011;40578;53.178;5.846;2022-07-19T10:16:17;5.95;;;2.50;;
54679;SDS011;40578;53.178;5.846;2022-07-19T10:18:51;8.82;;;2.58;;
54679;SDS011;40578;53.178;5.846;2022-07-19T10:21:43;5.75;;;2.78;;
54679;SDS011;40578;53.178;5.846;2022-07-19T10:24:11;3.53;;;2.88;;
54679;SDS011;40578;53.178;5.846;2022-07-19T10:26:38;5.57;;;2.50;;
54679;SDS011;40578;53.178;5.846;2022-07-19T10:29:09;6.00;;;2.88;;
54679;SDS011;40578;53.178;5.846;2022-07-19T10:31:42;6.10;;;2.83;;
54679;SDS011;40578;53.178;5.846;2022-07-19T10:34:10;4.05;;;2.88;;
54679;SDS011;40578;53.178;5.846;2022-07-19T10:50:06;5.32;;;2.70;;
54679;SDS011;40578;53.178;5.846;2022-07-19T10:52:35;7.78;;;2.90;;
54679;SDS011;40578;53.178;5.846;2022-07-19T11:02:44;5.30;;;2.60;;
54679;SDS011;40578;53.178;5.846;2022-07-19T11:07:55;3.92;;;2.75;;
54679;SDS011;40578;53.178;5.846;2022-07-19T11:10:23;5.88;;;2.67;;
54679;SDS011;40578;53.178;5.846;2022-07-19T11:12:53;4.30;;;2.40;;
54679;SDS011;40578;53.178;5.846;2022-07-19T11:15:20;3.55;;;2.42;;
54679;SDS011;40578;53.178;5.846;2022-07-19T11:20:16;4.28;;;2.40;;
54679;SDS011;40578;53.178;5.846;2022-07-19T11:22:44;4.35;;;2.50;;
54679;SDS011;40578;53.178;5.846;2022-07-19T11:25:12;5.10;;;2.63;;
54679;SDS011;40578;53.178;5.846;2022-07-19T11:27:42;4.80;;;2.72;;
54679;SDS011;40578;53.178;5.846;2022-07-19T11:30:10;5.95;;;2.80;;
54679;SDS011;40578;53.178;5.846;2022-07-19T11:32:37;5.15;;;2.50;;
54679;SDS011;40578;53.178;5.846;2022-07-19T11:37:32;3.65;;;2.28;;
54679;SDS011;40578;53.178;5.846;2022-07-19T11:39:59;4.75;;;2.20;;
54679;SDS011;40578;53.178;5.846;2022-07-19T11:42:29;8.98;;;2.63;;
54679;SDS011;40578;53.178;5.846;2022-07-19T11:44:56;7.65;;;2.30;;
54679;SDS011;40578;53.178;5.846;2022-07-19T11:47:22;7.60;;;2.70;;
54679;SDS011;40578;53.178;5.846;2022-07-19T11:49:47;6.03;;;2.42;;
54679;SDS011;40578;53.178;5.846;2022-07-19T11:52:13;5.05;;;2.50;;
54679;SDS011;40578;53.178;5.846;2022-07-19T11:54:39;3.38;;;2.03;;
54679;SDS011;40578;53.178;5.846;2022-07-19T11:57:04;4.20;;;2.50;;
54679;SDS011;40578;53.178;5.846;2022-07-19T11:59:46;4.65;;;2.35;;
54679;SDS011;40578;53.178;5.846;2022-07-19T12:02:12;5.40;;;2.45;;
54679;SDS011;40578;53.178;5.846;2022-07-19T12:04:37;4.57;;;2.25;;
54679;SDS011;40578;53.178;5.846;2022-07-19T12:07:03;4.85;;;2.00;;
54679;SDS011;40578;53.178;5.846;2022-07-19T12:09:29;4.65;;;2.55;;
54679;SDS011;40578;53.178;5.846;2022-07-19T12:11:58;4.60;;;2.03;;
54679;SDS011;40578;53.178;5.846;2022-07-19T12:14:24;6.13;;;2.25;;
54679;SDS011;40578;53.178;5.846;2022-07-19T12:19:44;4.05;;;2.28;;
54679;SDS011;40578;53.178;5.846;2022-07-19T12:27:24;3.83;;;2.20;;
54679;SDS011;40578;53.178;5.846;2022-07-19T12:29:53;6.88;;;2.40;;
54679;SDS011;40578;53.178;5.846;2022-07-19T12:37:40;3.83;;;2.20;;
54679;SDS011;40578;53.178;5.846;2022-07-19T12:40:18;5.70;;;2.20;;
54679;SDS011;40578;53.178;5.846;2022-07-19T12:45:13;5.15;;;2.40;;
54679;SDS011;40578;53.178;5.846;2022-07-19T12:47:40;4.20;;;2.60;;
54679;SDS011;40578;53.178;5.846;2022-07-19T12:50:06;3.63;;;2.33;;
54679;SDS011;40578;53.178;5.846;2022-07-19T12:52:33;3.30;;;2.17;;
54679;SDS011;40578;53.178;5.846;2022-07-19T12:54:59;4.07;;;2.38;;
54679;SDS011;40578;53.178;5.846;2022-07-19T12:57:25;4.97;;;2.65;;
54679;SDS011;40578;53.178;5.846;2022-07-19T12:59:53;4.68;;;2.67;;
54679;SDS011;40578;53.178;5.846;2022-07-19T13:02:19;2.95;;;2.20;;
54679;SDS011;40578;53.178;5.846;2022-07-19T13:04:46;7.35;;;2.25;;
54679;SDS011;40578;53.178;5.846;2022-07-19T13:07:12;2.83;;;2.00;;
54679;SDS011;40578;53.178;5.846;2022-07-19T13:09:38;3.83;;;2.40;;
54679;SDS011;40578;53.178;5.846;2022-07-19T13:12:05;5.32;;;2.30;;
54679;SDS011;40578;53.178;5.846;2022-07-19T13:14:32;5.15;;;2.40;;
54679;SDS011;40578;53.178;5.846;2022-07-19T13:16:59;7.22;;;2.70;;
54679;SDS011;40578;53.178;5.846;2022-07-19T13:19:25;4.75;;;2.30;;
54679;SDS011;40578;53.178;5.846;2022-07-19T13:21:51;5.45;;;2.75;;
54679;SDS011;40578;53.178;5.846;2022-07-19T13:24:17;5.93;;;2.55;;
54679;SDS011;40578;53.178;5.846;2022-07-19T13:26:43;4.63;;;2.20;;
54679;SDS011;40578;53.178;5.846;2022-07-19T13:29:08;5.15;;;2.33;;
54679;SDS011;40578;53.178;5.846;2022-07-19T13:31:34;3.85;;;2.30;;
54679;SDS011;40578;53.178;5.846;2022-07-19T13:36:28;5.68;;;2.30;;
54679;SDS011;40578;53.178;5.846;2022-07-19T13:38:54;4.10;;;2.30;;
54679;SDS011;40578;53.178;5.846;2022-07-19T13:41:19;4.57;;;2.58;;
54679;SDS011;40578;53.178;5.846;2022-07-19T13:43:45;3.72;;;2.42;;
54679;SDS011;40578;53.178;5.846;2022-07-19T13:46:11;3.38;;;2.17;;
54679;SDS011;40578;53.178;5.846;2022-07-19T13:48:40;4.15;;;2.30;;
54679;SDS011;40578;53.178;5.846;2022-07-19T13:51:06;6.05;;;2.28;;
54679;SDS011;40578;53.178;5.846;2022-07-19T13:53:33;6.15;;;2.22;;
54679;SDS011;40578;53.178;5.846;2022-07-19T13:56:00;3.55;;;2.00;;
54679;SDS011;40578;53.178;5.846;2022-07-19T13:58:26;5.32;;;2.25;;
54679;SDS011;40578;53.178;5.846;2022-07-19T14:00:51;3.85;;;1.90;;
54679;SDS011;40578;53.178;5.846;2022-07-19T14:03:17;3.15;;;2.38;;
54679;SDS011;40578;53.178;5.846;2022-07-19T14:05:44;3.80;;;2.40;;
54679;SDS011;40578;53.178;5.846;2022-07-19T14:08:10;6.25;;;2.28;;
54679;SDS011;40578;53.178;5.846;2022-07-19T14:10:36;3.28;;;2.00;;
54679;SDS011;40578;53.178;5.846;2022-07-19T14:13:02;4.80;;;2.13;;
54679;SDS011;40578;53.178;5.846;2022-07-19T14:17:53;7.20;;;2.55;;
54679;SDS011;40578;53.178;5.846;2022-07-19T14:22:45;4.65;;;2.30;;
54679;SDS011;40578;53.178;5.846;2022-07-19T14:25:10;7.05;;;2.10;;
54679;SDS011;40578;53.178;5.846;2022-07-19T14:30:02;5.38;;;2.00;;
54679;SDS011;40578;53.178;5.846;2022-07-19T14:32:28;5.85;;;2.13;;
54679;SDS011;40578;53.178;5.846;2022-07-19T14:37:20;3.90;;;2.08;;
54679;SDS011;40578;53.178;5.846;2022-07-19T14:42:12;5.53;;;1.90;;
54679;SDS011;40578;53.178;5.846;2022-07-19T14:44:38;5.25;;;2.22;;
54679;SDS011;40578;53.178;5.846;2022-07-19T14:49:29;6.03;;;1.95;;
54679;SDS011;40578;53.178;5.846;2022-07-19T14:51:54;7.50;;;2.00;;
54679;SDS011;40578;53.178;5.846;2022-07-19T14:56:46;3.92;;;2.17;;
54679;SDS011;40578;53.178;5.846;2022-07-19T15:01:37;3.95;;;2.00;;
54679;SDS011;40578;53.178;5.846;2022-07-19T15:06:28;5.65;;;2.10;;
54679;SDS011;40578;53.178;5.846;2022-07-19T15:11:20;7.65;;;2.30;;
54679;SDS011;40578;53.178;5.846;2022-07-19T15:16:11;5.20;;;2.05;;
54679;SDS011;40578;53.178;5.846;2022-07-19T15:21:02;3.50;;;2.03;;
54679;SDS011;40578;53.178;5.846;2022-07-19T15:25:56;5.45;;;2.30;;
54679;SDS011;40578;53.178;5.846;2022-07-19T15:30:47;6.65;;;2.10;;
54679;SDS011;40578;53.178;5.846;2022-07-19T15:35:38;5.50;;;2.40;;
54679;SDS011;40578;53.178;5.846;2022-07-19T15:40:30;4.47;;;2.10;;
54679;SDS011;40578;53.178;5.846;2022-07-19T15:45:21;9.98;;;2.22;;
54679;SDS011;40578;53.178;5.846;2022-07-19T15:50:13;5.63;;;1.92;;
54679;SDS011;40578;53.178;5.846;2022-07-19T15:52:40;6.85;;;2.40;;
54679;SDS011;40578;53.178;5.846;2022-07-19T15:55:07;4.78;;;2.33;;
54679;SDS011;40578;53.178;5.846;2022-07-19T15:57:33;4.60;;;2.20;;
54679;SDS011;40578;53.178;5.846;2022-07-19T16:02:24;4.78;;;2.22;;
54679;SDS011;40578;53.178;5.846;2022-07-19T16:07:16;7.60;;;2.50;;
54679;SDS011;40578;53.178;5.846;2022-07-19T16:09:42;3.92;;;2.38;;
54679;SDS011;40578;53.178;5.846;2022-07-19T16:12:12;6.80;;;2.50;;
54679;SDS011;40578;53.178;5.846;2022-07-19T16:14:38;3.85;;;2.58;;
54679;SDS011;40578;53.178;5.846;2022-07-19T16:17:05;6.10;;;2.72;;
54679;SDS011;40578;53.178;5.846;2022-07-19T16:19:31;6.28;;;2.70;;
54679;SDS011;40578;53.178;5.846;2022-07-19T16:21:57;4.82;;;2.55;;
54679;SDS011;40578;53.178;5.846;2022-07-19T16:24:22;7.47;;;3.80;;
54679;SDS011;40578;53.178;5.846;2022-07-19T16:26:48;5.93;;;3.60;;
54679;SDS011;40578;53.178;5.846;2022-07-19T16:29:14;4.63;;;2.50;;
54679;SDS011;40578;53.178;5.846;2022-07-19T16:31:40;5.65;;;2.45;;